BTI117 ESSA-EVRA
Flight info
| Callsign | BTI117 |
|---|---|
| Flight time | 0h 46m |
| Altitude | 33000 |
| Route | BABAP P156 NEKLA DCT RUDNI DCT LAPSA |
| Aircraft | A20N/M-SDE2E3FGHIRWXY/LB1 |
Departure
| Time | 2026-05-05 18:58 |
|---|---|
| Airport | Stockholm-Arlanda Airport (ESSA) |
Arrival
| Time | 2026-05-05 19:44 |
|---|---|
| Airport | Riga International Airport (EVRA) |
| Time | Latitude | Longitude | Altitude | Speed | Heading |
|---|---|---|---|---|---|
| 2026-05-05 18:22 | 59.64389 | 17.92727 | 114 ft | 0 kts | 45° |
| 2026-05-05 18:44 | 59.64382 | 17.92714 | 114 ft | 2 kts | 45° |
| 2026-05-05 18:45 | 59.64371 | 17.92691 | 110 ft | 2 kts | 44° |
| 2026-05-05 18:45 | 59.64359 | 17.92668 | 111 ft | 2 kts | 44° |
| 2026-05-05 18:45 | 59.64347 | 17.92646 | 113 ft | 2 kts | 43° |
| 2026-05-05 18:45 | 59.64334 | 17.92624 | 110 ft | 2 kts | 41° |
| 2026-05-05 18:46 | 59.64322 | 17.92603 | 111 ft | 2 kts | 39° |
| 2026-05-05 18:46 | 59.64309 | 17.92583 | 112 ft | 2 kts | 35° |
| 2026-05-05 18:46 | 59.64295 | 17.92566 | 113 ft | 2 kts | 26° |
| 2026-05-05 18:46 | 59.64279 | 17.92556 | 111 ft | 2 kts | 345° |
| 2026-05-05 18:47 | 59.64270 | 17.92567 | 111 ft | 1 kts | 298° |
| 2026-05-05 18:47 | 59.64270 | 17.92568 | 111 ft | 0 kts | 297° |
| 2026-05-05 18:50 | 59.64274 | 17.92550 | 112 ft | 4 kts | 297° |
| 2026-05-05 18:50 | 59.64293 | 17.92478 | 112 ft | 8 kts | 296° |
| 2026-05-05 18:50 | 59.64324 | 17.92351 | 110 ft | 12 kts | 297° |
| 2026-05-05 18:51 | 59.64370 | 17.92186 | 113 ft | 15 kts | 299° |
| 2026-05-05 18:51 | 59.64460 | 17.92116 | 112 ft | 16 kts | 8° |
| 2026-05-05 18:51 | 59.64576 | 17.92157 | 114 ft | 18 kts | 11° |
| 2026-05-05 18:51 | 59.64687 | 17.92145 | 115 ft | 14 kts | 301° |
| 2026-05-05 18:52 | 59.64767 | 17.92064 | 114 ft | 14 kts | 4° |
| 2026-05-05 18:52 | 59.64869 | 17.92097 | 114 ft | 16 kts | 10° |
| 2026-05-05 18:52 | 59.64982 | 17.92137 | 112 ft | 17 kts | 10° |
| 2026-05-05 18:52 | 59.65102 | 17.92181 | 116 ft | 18 kts | 11° |
| 2026-05-05 18:53 | 59.65232 | 17.92228 | 116 ft | 20 kts | 9° |
| 2026-05-05 18:53 | 59.65370 | 17.92276 | 118 ft | 21 kts | 11° |
| 2026-05-05 18:53 | 59.65515 | 17.92330 | 119 ft | 22 kts | 10° |
| 2026-05-05 18:53 | 59.65666 | 17.92384 | 118 ft | 22 kts | 10° |
| 2026-05-05 18:54 | 59.65821 | 17.92440 | 117 ft | 23 kts | 10° |
| 2026-05-05 18:54 | 59.65982 | 17.92500 | 119 ft | 24 kts | 10° |
| 2026-05-05 18:54 | 59.66149 | 17.92558 | 122 ft | 25 kts | 11° |
| 2026-05-05 18:54 | 59.66319 | 17.92623 | 122 ft | 24 kts | 9° |
| 2026-05-05 18:55 | 59.66483 | 17.92641 | 121 ft | 24 kts | 343° |
| 2026-05-05 18:55 | 59.66611 | 17.92501 | 123 ft | 21 kts | 292° |
| 2026-05-05 18:55 | 59.66517 | 17.92334 | 122 ft | 21 kts | 188° |
| 2026-05-05 18:55 | 59.66502 | 17.92328 | 122 ft | 0 kts | 192° |
| 2026-05-05 18:57 | 59.66276 | 17.92246 | 122 ft | 76 kts | 190° |
| 2026-05-05 18:57 | 59.65487 | 17.91954 | 116 ft | 152 kts | 190° |
| 2026-05-05 18:57 | 59.64312 | 17.91525 | 590 ft | 175 kts | 191° |
| 2026-05-05 18:58 | 59.63120 | 17.91107 | 1693 ft | 172 kts | 192° |
| 2026-05-05 18:58 | 59.61899 | 17.90693 | 2586 ft | 186 kts | 191° |
| 2026-05-05 18:58 | 59.60539 | 17.90424 | 3172 ft | 208 kts | 186° |
| 2026-05-05 18:58 | 59.59029 | 17.90282 | 3906 ft | 221 kts | 185° |
| 2026-05-05 18:59 | 59.57492 | 17.90246 | 4673 ft | 228 kts | 175° |
| 2026-05-05 18:59 | 59.56015 | 17.91430 | 4951 ft | 234 kts | 142° |
| 2026-05-05 18:59 | 59.54838 | 17.93711 | 5024 ft | 237 kts | 133° |
| 2026-05-05 18:59 | 59.53977 | 17.96418 | 5021 ft | 239 kts | 105° |
| 2026-05-05 19:00 | 59.53861 | 17.98613 | 5165 ft | 240 kts | 81° |
| 2026-05-05 19:00 | 59.54849 | 18.02360 | 6203 ft | 232 kts | 38° |
| 2026-05-05 19:00 | 59.56079 | 18.04576 | 6935 ft | 250 kts | 46° |
| 2026-05-05 19:00 | 59.56930 | 18.07755 | 7428 ft | 278 kts | 74° |
| 2026-05-05 19:01 | 59.56983 | 18.11602 | 8123 ft | 292 kts | 102° |
| 2026-05-05 19:01 | 59.56163 | 18.15255 | 9082 ft | 294 kts | 129° |
| 2026-05-05 19:01 | 59.54665 | 18.17981 | 10001 ft | 295 kts | 148° |
| 2026-05-05 19:01 | 59.52901 | 18.20310 | 10523 ft | 316 kts | 148° |
| 2026-05-05 19:02 | 59.51083 | 18.22979 | 10846 ft | 341 kts | 143° |
| 2026-05-05 19:02 | 59.49259 | 18.26178 | 11459 ft | 354 kts | 139° |
| 2026-05-05 19:02 | 59.47502 | 18.29623 | 12229 ft | 363 kts | 137° |
| 2026-05-05 19:02 | 59.45732 | 18.33269 | 13011 ft | 371 kts | 137° |
| 2026-05-05 19:03 | 59.43951 | 18.36993 | 13751 ft | 378 kts | 138° |
| 2026-05-05 19:03 | 59.42130 | 18.40801 | 14440 ft | 384 kts | 139° |
| 2026-05-05 19:03 | 59.40279 | 18.44659 | 15125 ft | 391 kts | 140° |
| 2026-05-05 19:03 | 59.38394 | 18.48571 | 15818 ft | 396 kts | 140° |
| 2026-05-05 19:04 | 59.36505 | 18.52475 | 16508 ft | 401 kts | 141° |
| 2026-05-05 19:04 | 59.34562 | 18.56476 | 17205 ft | 406 kts | 142° |
| 2026-05-05 19:04 | 59.33263 | 18.59149 | 17663 ft | 409 kts | 142° |
| 2026-05-05 19:04 | 59.30628 | 18.64554 | 18542 ft | 415 kts | 143° |
| 2026-05-05 19:05 | 59.28624 | 18.68655 | 19199 ft | 418 kts | 142° |
| 2026-05-05 19:05 | 59.27292 | 18.71378 | 19623 ft | 420 kts | 142° |
| 2026-05-05 19:05 | 59.25255 | 18.75531 | 20249 ft | 423 kts | 142° |
| 2026-05-05 19:05 | 59.23204 | 18.79705 | 20862 ft | 427 kts | 142° |
| 2026-05-05 19:06 | 59.21129 | 18.83916 | 21481 ft | 430 kts | 142° |
| 2026-05-05 19:06 | 59.19080 | 18.88067 | 22087 ft | 433 kts | 142° |
| 2026-05-05 19:06 | 59.16973 | 18.92329 | 22683 ft | 437 kts | 142° |
| 2026-05-05 19:06 | 59.14843 | 18.96628 | 23276 ft | 441 kts | 142° |
| 2026-05-05 19:07 | 59.12724 | 19.00900 | 23793 ft | 444 kts | 142° |
| 2026-05-05 19:07 | 59.10567 | 19.05241 | 24310 ft | 446 kts | 142° |
| 2026-05-05 19:07 | 59.08396 | 19.09601 | 24815 ft | 449 kts | 142° |
| 2026-05-05 19:07 | 59.06203 | 19.13996 | 25298 ft | 451 kts | 142° |
| 2026-05-05 19:08 | 59.04030 | 19.18343 | 25775 ft | 454 kts | 143° |
| 2026-05-05 19:08 | 59.01816 | 19.22765 | 26245 ft | 456 kts | 143° |
| 2026-05-05 19:08 | 58.99590 | 19.27203 | 26705 ft | 459 kts | 142° |
| 2026-05-05 19:08 | 58.97410 | 19.31684 | 27151 ft | 463 kts | 141° |
| 2026-05-05 19:09 | 58.95219 | 19.36327 | 27580 ft | 466 kts | 140° |
| 2026-05-05 19:09 | 58.93023 | 19.41003 | 28017 ft | 468 kts | 140° |
| 2026-05-05 19:09 | 58.90819 | 19.45682 | 28428 ft | 470 kts | 141° |
| 2026-05-05 19:09 | 58.88631 | 19.50298 | 28825 ft | 472 kts | 141° |
| 2026-05-05 19:10 | 58.86397 | 19.54985 | 29202 ft | 475 kts | 141° |
| 2026-05-05 19:10 | 58.84137 | 19.59707 | 29574 ft | 477 kts | 141° |
| 2026-05-05 19:10 | 58.81880 | 19.64411 | 29961 ft | 479 kts | 141° |
| 2026-05-05 19:10 | 58.79601 | 19.69147 | 30287 ft | 481 kts | 141° |
| 2026-05-05 19:11 | 58.77314 | 19.73892 | 30606 ft | 483 kts | 141° |
| 2026-05-05 19:11 | 58.75050 | 19.78580 | 30902 ft | 485 kts | 141° |
| 2026-05-05 19:11 | 58.72744 | 19.83345 | 31289 ft | 486 kts | 141° |
| 2026-05-05 19:11 | 58.70438 | 19.88104 | 31694 ft | 485 kts | 141° |
| 2026-05-05 19:12 | 58.68133 | 19.92851 | 32119 ft | 484 kts | 141° |
| 2026-05-05 19:12 | 58.65831 | 19.97580 | 32518 ft | 484 kts | 141° |
| 2026-05-05 19:12 | 58.63524 | 20.02309 | 32814 ft | 483 kts | 141° |
| 2026-05-05 19:12 | 58.61254 | 20.06952 | 32888 ft | 482 kts | 141° |
| 2026-05-05 19:13 | 58.56665 | 20.16307 | 32889 ft | 481 kts | 141° |
| 2026-05-05 19:13 | 58.52074 | 20.25626 | 32889 ft | 481 kts | 141° |
| 2026-05-05 19:14 | 58.47469 | 20.34938 | 32893 ft | 481 kts | 141° |
| 2026-05-05 19:14 | 58.42893 | 20.44155 | 32894 ft | 480 kts | 141° |
| 2026-05-05 19:15 | 58.38269 | 20.53430 | 32893 ft | 480 kts | 141° |
| 2026-05-05 19:15 | 58.33687 | 20.62584 | 32895 ft | 480 kts | 141° |
| 2026-05-05 19:16 | 58.29085 | 20.71744 | 32899 ft | 479 kts | 141° |
| 2026-05-05 19:16 | 58.24457 | 20.80915 | 32899 ft | 479 kts | 141° |
| 2026-05-05 19:17 | 58.19851 | 20.90008 | 32901 ft | 479 kts | 141° |
| 2026-05-05 19:17 | 58.15250 | 20.99054 | 32903 ft | 478 kts | 141° |
| 2026-05-05 19:18 | 58.10606 | 21.08150 | 32897 ft | 478 kts | 141° |
| 2026-05-05 19:18 | 58.05979 | 21.17175 | 32907 ft | 477 kts | 141° |
| 2026-05-05 19:19 | 58.01379 | 21.26113 | 32901 ft | 477 kts | 141° |
| 2026-05-05 19:19 | 57.96735 | 21.35100 | 32904 ft | 477 kts | 141° |
| 2026-05-05 19:20 | 57.92114 | 21.44008 | 32905 ft | 476 kts | 141° |
| 2026-05-05 19:20 | 57.87499 | 21.52870 | 32905 ft | 476 kts | 141° |
| 2026-05-05 19:21 | 57.82847 | 21.61768 | 32902 ft | 476 kts | 141° |
| 2026-05-05 19:21 | 57.78211 | 21.70599 | 32914 ft | 475 kts | 141° |
| 2026-05-05 19:22 | 57.73569 | 21.79413 | 32570 ft | 472 kts | 141° |
| 2026-05-05 19:22 | 57.71254 | 21.83791 | 31829 ft | 474 kts | 141° |
| 2026-05-05 19:22 | 57.68940 | 21.88156 | 30897 ft | 478 kts | 141° |
| 2026-05-05 19:23 | 57.66575 | 21.92609 | 29804 ft | 485 kts | 141° |
| 2026-05-05 19:23 | 57.64186 | 21.97097 | 28632 ft | 490 kts | 141° |
| 2026-05-05 19:23 | 57.61783 | 22.01614 | 27853 ft | 485 kts | 141° |
| 2026-05-05 19:23 | 57.59444 | 22.06010 | 27170 ft | 480 kts | 141° |
| 2026-05-05 19:24 | 57.57095 | 22.10413 | 26469 ft | 475 kts | 141° |
| 2026-05-05 19:24 | 57.54771 | 22.14755 | 25784 ft | 470 kts | 141° |
| 2026-05-05 19:24 | 57.52469 | 22.19046 | 25118 ft | 465 kts | 142° |
| 2026-05-05 19:24 | 57.50189 | 22.23286 | 24468 ft | 461 kts | 142° |
| 2026-05-05 19:25 | 57.47959 | 22.27425 | 23830 ft | 456 kts | 142° |
| 2026-05-05 19:25 | 57.45715 | 22.31583 | 23142 ft | 452 kts | 142° |
| 2026-05-05 19:25 | 57.43493 | 22.35696 | 22445 ft | 448 kts | 142° |
| 2026-05-05 19:25 | 57.41334 | 22.39862 | 21747 ft | 448 kts | 137° |
| 2026-05-05 19:26 | 57.39513 | 22.44492 | 21084 ft | 451 kts | 128° |
| 2026-05-05 19:26 | 57.37947 | 22.49579 | 20426 ft | 449 kts | 125° |
| 2026-05-05 19:26 | 57.36445 | 22.54572 | 19770 ft | 445 kts | 125° |
| 2026-05-05 19:26 | 57.34896 | 22.59509 | 19139 ft | 437 kts | 130° |
| 2026-05-05 19:27 | 57.33016 | 22.63846 | 18523 ft | 424 kts | 141° |
| 2026-05-05 19:27 | 57.30858 | 22.67352 | 17876 ft | 412 kts | 151° |
| 2026-05-05 19:27 | 57.28499 | 22.70358 | 17183 ft | 406 kts | 153° |
| 2026-05-05 19:27 | 57.26250 | 22.73411 | 16565 ft | 407 kts | 145° |
| 2026-05-05 19:28 | 57.24263 | 22.77184 | 15956 ft | 407 kts | 139° |
| 2026-05-05 19:28 | 57.22359 | 22.81029 | 15341 ft | 402 kts | 138° |
| 2026-05-05 19:28 | 57.20475 | 22.84820 | 14749 ft | 398 kts | 138° |
| 2026-05-05 19:28 | 57.18621 | 22.88529 | 14168 ft | 395 kts | 139° |
| 2026-05-05 19:29 | 57.16764 | 22.92218 | 13579 ft | 391 kts | 138° |
| 2026-05-05 19:29 | 57.14905 | 22.95892 | 12930 ft | 388 kts | 139° |
| 2026-05-05 19:29 | 57.13059 | 22.99524 | 12293 ft | 385 kts | 139° |
| 2026-05-05 19:29 | 57.11251 | 23.03054 | 11693 ft | 382 kts | 139° |
| 2026-05-05 19:30 | 57.09412 | 23.06627 | 11073 ft | 379 kts | 139° |
| 2026-05-05 19:30 | 57.07640 | 23.10057 | 10475 ft | 367 kts | 139° |
| 2026-05-05 19:30 | 57.05903 | 23.13413 | 9890 ft | 356 kts | 139° |
| 2026-05-05 19:30 | 57.04202 | 23.16694 | 9250 ft | 347 kts | 139° |
| 2026-05-05 19:31 | 57.02571 | 23.19819 | 8624 ft | 339 kts | 139° |
| 2026-05-05 19:31 | 57.00946 | 23.22911 | 7994 ft | 331 kts | 139° |
| 2026-05-05 19:31 | 56.99375 | 23.25887 | 7703 ft | 314 kts | 139° |
| 2026-05-05 19:31 | 56.97925 | 23.28647 | 7519 ft | 295 kts | 139° |
| 2026-05-05 19:32 | 56.96548 | 23.31282 | 7347 ft | 277 kts | 139° |
| 2026-05-05 19:32 | 56.95247 | 23.33779 | 7103 ft | 264 kts | 139° |
| 2026-05-05 19:32 | 56.93998 | 23.36174 | 6658 ft | 261 kts | 139° |
| 2026-05-05 19:32 | 56.92755 | 23.38534 | 6191 ft | 259 kts | 139° |
| 2026-05-05 19:33 | 56.91495 | 23.40898 | 5692 ft | 257 kts | 139° |
| 2026-05-05 19:33 | 56.90231 | 23.43228 | 5233 ft | 256 kts | 139° |
| 2026-05-05 19:33 | 56.88984 | 23.45497 | 5042 ft | 264 kts | 139° |
| 2026-05-05 19:33 | 56.87553 | 23.48049 | 4994 ft | 297 kts | 139° |
| 2026-05-05 19:34 | 56.86093 | 23.50642 | 5004 ft | 283 kts | 139° |
| 2026-05-05 19:34 | 56.84739 | 23.53059 | 4991 ft | 266 kts | 139° |
| 2026-05-05 19:34 | 56.83457 | 23.55368 | 4996 ft | 250 kts | 139° |
| 2026-05-05 19:35 | 56.81108 | 23.59636 | 4751 ft | 232 kts | 139° |
| 2026-05-05 19:35 | 56.79977 | 23.61680 | 4449 ft | 233 kts | 139° |
| 2026-05-05 19:35 | 56.78785 | 23.63805 | 3993 ft | 239 kts | 139° |
| 2026-05-05 19:35 | 56.77557 | 23.65943 | 3526 ft | 246 kts | 139° |
| 2026-05-05 19:36 | 56.76296 | 23.68092 | 3151 ft | 248 kts | 139° |
| 2026-05-05 19:36 | 56.75040 | 23.70205 | 2841 ft | 246 kts | 139° |
| 2026-05-05 19:36 | 56.73771 | 23.72313 | 2564 ft | 244 kts | 139° |
| 2026-05-05 19:36 | 56.72509 | 23.74388 | 2493 ft | 249 kts | 139° |
| 2026-05-05 19:37 | 56.71229 | 23.76487 | 2494 ft | 247 kts | 139° |
| 2026-05-05 19:37 | 56.69968 | 23.78587 | 2488 ft | 247 kts | 133° |
| 2026-05-05 19:37 | 56.69141 | 23.81295 | 2488 ft | 247 kts | 103° |
| 2026-05-05 19:37 | 56.68822 | 23.84356 | 2486 ft | 240 kts | 98° |
| 2026-05-05 19:38 | 56.68684 | 23.87240 | 2485 ft | 223 kts | 78° |
| 2026-05-05 19:38 | 56.69320 | 23.89764 | 2493 ft | 223 kts | 44° |
| 2026-05-05 19:38 | 56.70430 | 23.91675 | 2491 ft | 218 kts | 39° |
| 2026-05-05 19:38 | 56.71574 | 23.93477 | 2484 ft | 216 kts | 29° |
| 2026-05-05 19:39 | 56.72948 | 23.94209 | 2486 ft | 197 kts | 1° |
| 2026-05-05 19:39 | 56.74254 | 23.94299 | 2491 ft | 186 kts | 359° |
| 2026-05-05 19:39 | 56.75569 | 23.94402 | 2497 ft | 188 kts | 0° |
| 2026-05-05 19:39 | 56.76863 | 23.94579 | 2510 ft | 180 kts | 1° |
| 2026-05-05 19:40 | 56.78035 | 23.94770 | 2493 ft | 162 kts | 1° |
| 2026-05-05 19:40 | 56.79117 | 23.94945 | 2375 ft | 152 kts | 1° |
| 2026-05-05 19:40 | 56.80154 | 23.95114 | 2178 ft | 147 kts | 1° |
| 2026-05-05 19:40 | 56.81143 | 23.95277 | 1985 ft | 137 kts | 2° |
| 2026-05-05 19:41 | 56.82042 | 23.95425 | 1818 ft | 128 kts | 1° |
| 2026-05-05 19:41 | 56.82930 | 23.95568 | 1636 ft | 126 kts | 2° |
| 2026-05-05 19:41 | 56.83793 | 23.95710 | 1470 ft | 126 kts | 2° |
| 2026-05-05 19:41 | 56.84667 | 23.95853 | 1291 ft | 126 kts | 2° |
| 2026-05-05 19:42 | 56.85527 | 23.95995 | 1128 ft | 126 kts | 2° |
| 2026-05-05 19:42 | 56.86410 | 23.96140 | 935 ft | 127 kts | 3° |
| 2026-05-05 19:42 | 56.87291 | 23.96285 | 752 ft | 125 kts | 4° |
| 2026-05-05 19:42 | 56.87877 | 23.96381 | 637 ft | 127 kts | 4° |
| 2026-05-05 19:43 | 56.88464 | 23.96478 | 517 ft | 127 kts | 4° |
| 2026-05-05 19:43 | 56.89041 | 23.96575 | 390 ft | 124 kts | 4° |
| 2026-05-05 19:43 | 56.90779 | 23.96861 | 96 ft | 124 kts | 4° |
| 2026-05-05 19:43 | 56.91598 | 23.96988 | 43 ft | 100 kts | 4° |
| 2026-05-05 19:44 | 56.92097 | 23.97069 | 44 ft | 42 kts | 5° |
| 2026-05-05 19:44 | 56.92202 | 23.97084 | 42 ft | 0 kts | 4° |
| 2026-05-05 19:44 | 56.92315 | 23.97134 | 43 ft | 21 kts | 12° |
| 2026-05-05 19:45 | 56.92457 | 23.97250 | 42 ft | 23 kts | 31° |
| 2026-05-05 19:45 | 56.92483 | 23.97280 | 42 ft | 0 kts | 34° |
| 2026-05-05 19:45 | 56.92531 | 23.97341 | 41 ft | 14 kts | 35° |
| 2026-05-05 19:46 | 56.92604 | 23.97461 | 43 ft | 7 kts | 66° |
| 2026-05-05 19:46 | 56.92605 | 23.97463 | 43 ft | 0 kts | 70° |
| 2026-05-05 19:46 | 56.92606 | 23.97493 | 43 ft | 7 kts | 84° |
| 2026-05-05 19:47 | 56.92545 | 23.97562 | 43 ft | 17 kts | 187° |
| 2026-05-05 19:47 | 56.92513 | 23.97549 | 43 ft | 1 kts | 193° |
| 2026-05-05 19:47 | 56.92428 | 23.97515 | 43 ft | 17 kts | 189° |
| 2026-05-05 19:47 | 56.92279 | 23.97487 | 40 ft | 23 kts | 188° |
| 2026-05-05 19:48 | 56.92167 | 23.97466 | 43 ft | 0 kts | 185° |
| 2026-05-05 19:48 | 56.92159 | 23.97466 | 43 ft | 3 kts | 177° |
| 2026-05-05 19:48 | 56.92143 | 23.97505 | 43 ft | 6 kts | 103° |
| 2026-05-05 19:48 | 56.92136 | 23.97610 | 41 ft | 10 kts | 96° |
| 2026-05-05 19:49 | 56.92146 | 23.97725 | 42 ft | 9 kts | 32° |
| 2026-05-05 19:49 | 56.92193 | 23.97743 | 42 ft | 9 kts | 6° |
| 2026-05-05 19:49 | 56.92196 | 23.97743 | 40 ft | 0 kts | 6° |